Airfield :
LOGIN :

Register | Disclaimer

   EN    FR    IT 

 










Legend :    VFR   Marginal VFR   IFR   Intensive IFR   Very Intensive IFR
Visi :
Ceiling :
>= 8 km
>= 3000ft
5 to 8 km
1000 to 3000 ft
1500m to 5 km
500 to 1000 ft
800 to 1500m
200 to 500 ft
< 800m
< 200 ft
Symbols :   Thunderstorms  Fog  Heavy snow  Heavy precipitations  Wind > 20 kt
SIGMETs :     Misc.  Thunderstorms  Icing  Turbulence  Mountain Waves  Volcanic Ashes






- Airport Elevation : 526 ft
- IATA code : LTN


EGGW - London Luton

CURRENT METAR :
  • 290620Z AUTO 01016KT 9999 OVC048 02/M01 Q1036

EXPIRED METARs :
  • 290550Z AUTO 02013KT 9999 NCD 01/M01 Q1035
  • 290520Z AUTO 02015G26KT 9999 OVC041 01/M00 Q1035
  • 290450Z AUTO 01014KT 9999 -RA FEW023 SCT030 01/00 Q1035 RESG
  • 290420Z AUTO 02016KT 1900 -SN SCT008 BKN017 BKN027 00/M00 Q1035 RESG RERA
  • 290350Z AUTO 02016KT 9999 NCD 02/M02 Q1035

TAF TAF EGGW
Valid from the 29 at 06:00 until the 30 at 06:00 UTC


290454Z 2906/3006 02014KT 9999 SCT045
BECMG 2906/2909 03020G30KT
PROB30
TEMPO 2906/2909 3000 SHRASN BKN008
PROB30
TEMPO 2909/2915 7000 SHRA
BECMG 2916/2919 03010KT
TEMPO 2923/3006 7000 SHRA
PROB30
TEMPO 2923/3006 3000 SHRASN BKN008
ATIS : +44 1582 395 204



MET'MAP, your aeronautical weather chart ! - Copyright ORBIFLY December 2007 - Disclaimer

ORBIFLY MET'MAP TEAM :

Programming & Development : Alexandra Zaïnal
Concept & original design : Baudouin d'Aumeries
Assistance for programming : Marc-Olivier Méhu
Technical & hardware support : Manuel Goepfert

Contact : metmap@orbifly.com




SOURCES & CREDITS :

   NOAA